Řízení letového provozu České republiky
Letiste: LKPD Aktualizace: 27.03.2017 12:06:12  UTC
 METAR LKPD 27.03. 12:00 ...
METAR LKPD 271200Z 23003KT 200V280 CAVOK 13/M03 Q1026 NOSIG=
 TAF LKPD 27.03. 11:00 ...
TAF LKPD 271100Z 2712/2812 VRB02KT CAVOK=